createdAt,value
2022-08-17T00:00:52.048Z,1.00
2022-08-17T00:03:23.486Z,1.17
2022-08-17T00:05:56.771Z,1.35
2022-08-17T00:08:31.240Z,1.08
2022-08-17T00:11:01.164Z,0.88
2022-08-17T00:13:35.268Z,0.93
2022-08-17T00:16:09.471Z,1.40
2022-08-17T00:19:00.382Z,1.65
2022-08-17T00:21:29.438Z,1.25
2022-08-17T00:24:18.754Z,1.27
2022-08-17T00:26:48.124Z,1.85
2022-08-17T00:29:20.024Z,0.90
2022-08-17T00:31:50.388Z,1.20
2022-08-17T00:34:19.924Z,1.15
2022-08-17T00:36:49.009Z,1.10
2022-08-17T00:39:18.105Z,0.90
2022-08-17T00:41:47.749Z,0.90
2022-08-17T00:44:17.273Z,0.80
2022-08-17T00:46:48.691Z,1.00
2022-08-17T00:49:20.618Z,1.17
2022-08-17T00:52:01.805Z,1.00
2022-08-17T00:54:41.664Z,0.75
2022-08-17T00:57:18.981Z,1.20
2022-08-17T01:00:02.405Z,1.20
2022-08-17T01:02:41.979Z,0.90
2022-08-17T01:05:25.938Z,1.10
2022-08-17T01:07:56.080Z,0.98
2022-08-17T01:10:59.551Z,0.93
2022-08-17T01:13:22.024Z,1.30
2022-08-17T01:16:03.335Z,1.20
2022-08-17T01:18:33.325Z,0.90
2022-08-17T01:21:12.001Z,1.00
2022-08-17T01:23:43.238Z,1.48
2022-08-17T01:26:12.304Z,1.20
2022-08-17T01:28:53.851Z,1.60
2022-08-17T01:31:29.234Z,1.10
2022-08-17T01:34:04.070Z,1.25
2022-08-17T01:36:33.512Z,1.17
2022-08-17T01:39:02.709Z,1.00
2022-08-17T01:41:31.912Z,1.10
2022-08-17T01:44:04.614Z,1.00
2022-08-17T01:46:36.996Z,0.98
2022-08-17T01:49:13.803Z,1.00
2022-08-17T01:51:42.851Z,1.00
2022-08-17T01:54:16.151Z,1.27
2022-08-17T01:56:48.980Z,1.10
2022-08-17T01:59:20.104Z,1.10
2022-08-17T02:01:49.445Z,1.10
2022-08-17T02:04:18.674Z,0.95
2022-08-17T02:06:53.257Z,1.08
2022-08-17T02:09:26.185Z,1.15
2022-08-17T02:12:37.991Z,0.93
2022-08-17T02:14:51.767Z,1.20
2022-08-17T02:17:20.817Z,1.15
2022-08-17T02:19:49.878Z,1.35
2022-08-17T02:22:19.174Z,1.13
2022-08-17T02:25:00.651Z,1.02
2022-08-17T02:27:30.959Z,1.65
2022-08-17T02:30:00.119Z,1.00
2022-08-17T02:32:32.327Z,1.10
2022-08-17T02:35:02.938Z,1.30
2022-08-17T02:37:32.319Z,1.55
2022-08-17T02:40:01.742Z,1.35
2022-08-17T02:42:36.820Z,1.00
2022-08-17T02:45:12.236Z,1.17
2022-08-17T02:47:42.763Z,1.20
2022-08-17T02:50:14.555Z,1.20
2022-08-17T02:52:45.733Z,1.10
2022-08-17T02:55:34.422Z,1.20
2022-08-17T02:58:04.576Z,1.30
2022-08-17T03:00:41.971Z,1.13
2022-08-17T03:03:14.579Z,1.40
2022-08-17T03:05:43.902Z,1.50
2022-08-17T03:08:13.726Z,1.38
2022-08-17T03:10:44.587Z,1.23
2022-08-17T03:13:15.542Z,1.30
2022-08-17T03:15:46.453Z,1.08
2022-08-17T03:18:25.315Z,1.13
2022-08-17T03:20:57.709Z,1.10
2022-08-17T03:23:34.843Z,1.38
2022-08-17T03:26:04.700Z,1.10
2022-08-17T03:28:49.950Z,1.23
2022-08-17T03:31:25.198Z,1.30
2022-08-17T03:33:54.343Z,1.00
2022-08-17T03:36:24.593Z,1.08
2022-08-17T03:38:53.786Z,1.02
2022-08-17T03:41:27.381Z,0.90
2022-08-17T03:44:08.609Z,1.23
2022-08-17T03:46:56.096Z,1.10
2022-08-17T03:49:43.634Z,1.10
2022-08-17T03:52:31.084Z,1.20
2022-08-17T03:55:18.523Z,1.13
2022-08-17T03:57:48.966Z,0.90
2022-08-17T04:00:19.225Z,0.90
2022-08-17T04:02:49.953Z,1.30
2022-08-17T04:05:19.303Z,1.10
2022-08-17T04:07:48.846Z,0.90
2022-08-17T04:10:24.705Z,1.60
2022-08-17T04:12:56.586Z,1.13
2022-08-17T04:15:27.106Z,1.10
2022-08-17T04:17:56.857Z,0.95
2022-08-17T04:20:28.051Z,1.10
2022-08-17T04:23:04.501Z,1.30
2022-08-17T04:25:36.168Z,1.00
2022-08-17T04:28:07.626Z,1.17
2022-08-17T04:30:46.129Z,0.95
2022-08-17T04:33:25.037Z,0.75
2022-08-17T04:36:01.310Z,1.17
2022-08-17T04:38:34.294Z,1.15
2022-08-17T04:41:22.438Z,1.17
2022-08-17T04:43:56.202Z,0.95
2022-08-17T04:46:36.615Z,0.90
2022-08-17T04:49:09.202Z,0.85
2022-08-17T04:51:56.160Z,0.88
2022-08-17T04:54:25.973Z,1.08
2022-08-17T04:56:54.952Z,1.25
2022-08-17T04:59:24.438Z,1.00
2022-08-17T05:01:53.777Z,1.30
2022-08-17T05:04:34.634Z,1.08
2022-08-17T05:07:05.392Z,1.25
2022-08-17T05:09:34.531Z,1.38
2022-08-17T05:12:04.159Z,1.48
2022-08-17T05:14:33.961Z,1.70
2022-08-17T05:17:04.562Z,1.40
2022-08-17T05:19:38.631Z,1.48
2022-08-17T05:22:07.776Z,1.38
2022-08-17T05:24:38.488Z,0.80
2022-08-17T05:27:16.784Z,1.27
2022-08-17T05:32:37.772Z,1.00
2022-08-17T05:35:07.154Z,0.90
2022-08-17T05:37:36.219Z,0.95
2022-08-17T05:40:06.258Z,0.77
2022-08-17T05:42:35.345Z,1.20
2022-08-17T05:45:04.827Z,1.50
2022-08-17T05:47:33.996Z,1.55
2022-08-17T05:50:03.842Z,2.13
2022-08-17T05:52:42.189Z,1.90
2022-08-17T05:55:47.061Z,1.95
2022-08-17T05:58:27.192Z,1.70
2022-08-17T06:01:11.322Z,1.58
2022-08-17T06:03:51.193Z,1.80
2022-08-17T06:06:42.659Z,1.90
2022-08-17T06:09:28.867Z,1.80
2022-08-17T06:12:22.850Z,1.98
2022-08-17T06:15:13.724Z,1.83
2022-08-17T06:17:44.261Z,1.15
2022-08-17T06:20:16.980Z,1.00
2022-08-17T06:22:53.371Z,0.80
2022-08-17T06:25:34.927Z,0.88
2022-08-17T06:28:09.672Z,1.00
2022-08-17T06:30:59.863Z,0.98
2022-08-17T06:33:40.275Z,0.70
2022-08-17T06:36:14.592Z,0.90
2022-08-17T06:39:00.875Z,0.80
2022-08-17T06:41:50.381Z,0.80
2022-08-17T06:44:43.238Z,0.65
2022-08-17T06:47:50.608Z,0.88
2022-08-17T06:50:43.767Z,0.90
2022-08-17T06:53:30.347Z,0.95
2022-08-17T06:56:14.544Z,0.70
2022-08-17T06:58:45.787Z,0.90
2022-08-17T07:01:31.731Z,1.13
2022-08-17T07:04:12.404Z,0.85
2022-08-17T07:06:51.606Z,0.93
2022-08-17T07:09:29.604Z,0.80
2022-08-17T07:12:16.987Z,0.68
2022-08-17T07:15:08.982Z,1.15
2022-08-17T07:17:47.508Z,0.75
2022-08-17T07:20:26.203Z,0.90
2022-08-17T07:23:29.439Z,0.93
2022-08-17T07:26:07.631Z,0.70
2022-08-17T07:28:37.711Z,0.65
2022-08-17T07:31:07.832Z,1.00
2022-08-17T07:33:37.656Z,0.80
2022-08-17T07:36:29.578Z,0.88
2022-08-17T07:38:59.666Z,1.10
2022-08-17T07:41:53.334Z,0.90
2022-08-17T07:44:20.062Z,0.90
2022-08-17T07:47:10.724Z,0.85
2022-08-17T07:49:43.121Z,0.90
2022-08-17T07:52:51.099Z,0.70
2022-08-17T07:55:33.593Z,0.80
2022-08-17T07:58:02.900Z,0.85
2022-08-17T08:00:34.406Z,0.90
2022-08-17T08:03:26.228Z,0.93
2022-08-17T08:06:03.244Z,0.70
2022-08-17T08:08:38.626Z,0.65
2022-08-17T08:11:16.016Z,0.98
2022-08-17T08:13:46.765Z,0.85
2022-08-17T08:16:20.730Z,1.40
2022-08-17T08:18:54.424Z,1.25
2022-08-17T08:21:59.882Z,1.20
2022-08-17T08:24:57.429Z,0.93
2022-08-17T08:30:15.255Z,0.90
2022-08-17T08:33:29.657Z,0.98
2022-08-17T08:36:10.315Z,0.80
2022-08-17T08:39:23.948Z,0.80
2022-08-17T08:42:17.717Z,1.00
2022-08-17T08:45:04.145Z,0.93
2022-08-17T08:47:35.444Z,1.00
2022-08-17T08:50:37.829Z,0.90
2022-08-17T08:53:15.675Z,0.82
2022-08-17T08:56:03.180Z,1.05
2022-08-17T08:59:08.511Z,1.02
2022-08-17T09:01:53.198Z,0.90
2022-08-17T09:05:10.601Z,0.90
2022-08-17T09:08:11.912Z,0.90
2022-08-17T09:10:57.680Z,0.82
2022-08-17T09:13:44.825Z,0.88
2022-08-17T09:16:17.336Z,0.90
2022-08-17T09:19:00.743Z,1.00
2022-08-17T09:21:48.698Z,0.80
2022-08-17T09:24:36.835Z,0.85
2022-08-17T09:27:14.298Z,0.90
2022-08-17T09:29:49.849Z,0.82
2022-08-17T09:32:23.300Z,1.27
2022-08-17T09:35:00.835Z,0.93
2022-08-17T09:37:55.684Z,1.02
2022-08-17T09:40:26.838Z,1.05
2022-08-17T09:43:07.449Z,1.15
2022-08-17T09:46:24.976Z,1.10
2022-08-17T09:49:12.653Z,0.90
2022-08-17T09:51:58.242Z,1.02
2022-08-17T09:54:48.102Z,0.90
2022-08-17T09:57:30.416Z,1.20
2022-08-17T10:00:19.559Z,1.30
2022-08-17T10:03:30.122Z,1.00
2022-08-17T10:06:21.959Z,1.33
2022-08-17T10:08:53.258Z,1.10
2022-08-17T10:11:59.886Z,0.98
2022-08-17T10:14:37.054Z,0.90
2022-08-17T10:17:30.362Z,1.05
2022-08-17T10:20:18.111Z,1.02
2022-08-17T10:23:12.500Z,1.00
2022-08-17T10:26:05.678Z,1.33
2022-08-17T10:28:45.930Z,1.00
2022-08-17T10:31:34.600Z,0.85
2022-08-17T10:34:29.634Z,0.90
2022-08-17T10:37:21.202Z,0.90
2022-08-17T10:39:54.852Z,1.10
2022-08-17T10:42:30.776Z,1.10
2022-08-17T10:45:18.123Z,0.93
2022-08-17T10:48:06.735Z,1.05
2022-08-17T10:50:58.448Z,1.00
2022-08-17T10:53:33.659Z,1.00
2022-08-17T10:56:15.253Z,1.00
2022-08-17T10:58:59.119Z,1.10
2022-08-17T11:01:34.660Z,1.25
2022-08-17T11:04:42.211Z,1.10
2022-08-17T11:07:37.529Z,1.13
2022-08-17T11:10:19.737Z,1.15
2022-08-17T11:13:16.132Z,1.33
2022-08-17T11:15:48.259Z,1.40
2022-08-17T11:18:47.740Z,1.20
2022-08-17T11:21:35.694Z,1.30
2022-08-17T11:24:45.494Z,1.27
2022-08-17T11:27:35.908Z,1.50
2022-08-17T11:30:36.782Z,1.40
2022-08-17T11:33:31.797Z,1.20
2022-08-17T11:36:16.065Z,1.23
2022-08-17T11:39:03.089Z,1.38
2022-08-17T11:44:27.625Z,1.13
2022-08-17T11:47:24.304Z,1.38
2022-08-17T11:50:34.298Z,1.40
2022-08-17T11:53:03.594Z,1.50
2022-08-17T11:55:37.212Z,1.60
2022-08-17T11:58:38.320Z,1.77
2022-08-17T12:01:33.554Z,1.50
2022-08-17T12:04:23.569Z,1.60
2022-08-17T12:07:19.269Z,1.52
2022-08-17T12:09:51.559Z,1.50
2022-08-17T12:12:36.740Z,1.58
2022-08-17T12:15:10.975Z,1.50
2022-08-17T12:17:43.021Z,1.30
2022-08-17T12:20:28.993Z,1.05
2022-08-17T12:23:23.471Z,1.20
2022-08-17T12:25:57.556Z,1.33
2022-08-17T12:28:33.909Z,1.17
2022-08-17T12:31:08.752Z,1.10
2022-08-17T12:33:43.589Z,1.30
2022-08-17T12:36:16.643Z,1.40
2022-08-17T12:39:14.058Z,1.30
2022-08-17T12:41:47.656Z,1.00
2022-08-17T12:44:23.057Z,1.10
2022-08-17T12:47:01.374Z,1.33
2022-08-17T12:49:32.263Z,1.42
2022-08-17T12:52:18.675Z,1.45
2022-08-17T12:55:13.550Z,1.90
2022-08-17T12:57:52.320Z,1.40
2022-08-17T13:00:32.469Z,1.63
2022-08-17T13:03:08.677Z,1.55
2022-08-17T13:05:42.054Z,1.48
2022-08-17T13:08:20.706Z,1.50
2022-08-17T13:11:02.649Z,1.25
2022-08-17T13:13:34.652Z,1.20
2022-08-17T13:16:05.860Z,1.23
2022-08-17T13:18:40.590Z,0.98
2022-08-17T13:21:31.389Z,1.00
2022-08-17T13:24:18.470Z,1.13
2022-08-17T13:29:29.891Z,1.30
2022-08-17T13:32:36.944Z,1.42
2022-08-17T13:35:39.593Z,1.33
2022-08-17T13:38:35.600Z,1.27
2022-08-17T13:41:08.312Z,1.30
2022-08-17T13:43:50.427Z,1.20
2022-08-17T13:46:27.475Z,1.67
2022-08-17T13:49:06.547Z,1.45
2022-08-17T13:51:47.191Z,1.38
2022-08-17T13:54:36.653Z,1.30
2022-08-17T13:57:18.411Z,1.40
2022-08-17T13:59:54.907Z,1.25
2022-08-17T14:02:28.423Z,1.33
2022-08-17T14:04:59.273Z,1.30
2022-08-17T14:07:38.878Z,1.63
2022-08-17T14:10:16.985Z,1.60
2022-08-17T14:12:46.747Z,1.45
2022-08-17T14:15:21.398Z,1.17
2022-08-17T14:17:51.801Z,1.33
2022-08-17T14:20:23.575Z,1.63
2022-08-17T14:22:55.500Z,1.25
2022-08-17T14:25:28.685Z,1.40
2022-08-17T14:27:58.160Z,1.50
2022-08-17T14:30:30.181Z,1.67
2022-08-17T14:33:00.649Z,1.35
2022-08-17T14:35:30.454Z,1.40
2022-08-17T14:38:00.123Z,1.40
2022-08-17T14:40:30.159Z,1.30
2022-08-17T14:42:59.632Z,1.30
2022-08-17T14:45:32.498Z,1.40
2022-08-17T14:48:05.060Z,1.30
2022-08-17T14:50:35.935Z,1.30
2022-08-17T14:53:07.467Z,1.35
2022-08-17T14:55:40.659Z,1.33
2022-08-17T14:58:10.618Z,1.70
2022-08-17T15:00:41.720Z,1.30
2022-08-17T15:03:12.384Z,1.38
2022-08-17T15:05:41.954Z,1.45
2022-08-17T15:08:11.145Z,1.38
2022-08-17T15:10:40.269Z,1.67
2022-08-17T15:13:24.658Z,1.70
2022-08-17T15:15:55.047Z,1.70
2022-08-17T15:18:24.146Z,1.27
2022-08-17T15:20:53.570Z,1.40
2022-08-17T15:23:25.028Z,1.48
2022-08-17T15:25:55.714Z,1.52
2022-08-17T15:28:25.257Z,1.80
2022-08-17T15:30:55.073Z,1.40
2022-08-17T15:33:32.885Z,1.55
2022-08-17T15:36:07.282Z,1.50
2022-08-17T15:38:40.210Z,1.13
2022-08-17T15:41:15.988Z,1.60
2022-08-17T15:43:47.083Z,1.35
2022-08-17T15:46:19.568Z,1.50
2022-08-17T15:48:51.589Z,1.50
2022-08-17T15:51:24.886Z,1.50
2022-08-17T15:53:59.302Z,1.42
2022-08-17T15:56:34.193Z,1.70
2022-08-17T15:59:03.549Z,1.52
2022-08-17T16:02:16.314Z,1.50
2022-08-17T16:04:29.792Z,1.38
2022-08-17T16:07:00.723Z,1.80
2022-08-17T16:09:30.168Z,1.70
2022-08-17T16:12:08.825Z,2.13
2022-08-17T16:14:37.913Z,1.58
2022-08-17T16:17:39.003Z,1.33
2022-08-17T16:19:57.327Z,1.40
2022-08-17T16:22:38.476Z,1.77
2022-08-17T16:25:17.828Z,1.63
2022-08-17T16:27:49.497Z,1.70
2022-08-17T16:30:18.669Z,1.55
2022-08-17T16:32:49.950Z,2.33
2022-08-17T16:35:21.367Z,1.50
2022-08-17T16:37:50.608Z,1.50
2022-08-17T16:40:20.993Z,1.90
2022-08-17T16:42:51.055Z,1.45
2022-08-17T16:45:24.323Z,2.10
2022-08-17T16:47:54.646Z,2.08
2022-08-17T16:50:25.779Z,1.08
2022-08-17T16:53:11.413Z,1.38
2022-08-17T16:55:40.726Z,1.40
2022-08-17T16:58:10.119Z,1.52
2022-08-17T17:00:39.892Z,1.75
2022-08-17T17:03:23.267Z,1.75
2022-08-17T17:05:58.291Z,2.20
2022-08-17T17:08:44.071Z,1.52
2022-08-17T17:11:34.952Z,1.40
2022-08-17T17:14:16.382Z,1.50
2022-08-17T17:17:04.619Z,1.65
2022-08-17T17:19:38.504Z,2.00
2022-08-17T17:22:27.330Z,1.55
2022-08-17T17:25:27.916Z,1.48
2022-08-17T17:28:26.393Z,1.73
2022-08-17T17:31:07.068Z,1.60
2022-08-17T17:33:49.898Z,1.77
2022-08-17T17:36:42.013Z,1.60
2022-08-17T17:39:18.993Z,1.80
2022-08-17T17:41:50.345Z,1.45
2022-08-17T17:44:25.547Z,2.10
2022-08-17T17:47:02.973Z,2.08
2022-08-17T17:49:37.257Z,1.95
2022-08-17T17:52:19.579Z,2.50
2022-08-17T17:55:05.559Z,1.60
2022-08-17T17:58:20.533Z,1.92
2022-08-17T18:01:13.518Z,1.95
2022-08-17T18:03:58.203Z,1.67
2022-08-17T18:06:37.614Z,1.70
2022-08-17T18:09:19.438Z,1.65
2022-08-17T18:12:32.473Z,1.83
2022-08-17T18:15:04.781Z,1.80
2022-08-17T18:17:34.313Z,1.42
2022-08-17T18:20:05.616Z,1.85
2022-08-17T18:22:40.246Z,1.48
2022-08-17T18:25:44.088Z,1.67
2022-08-17T18:28:26.927Z,1.65
2022-08-17T18:31:18.563Z,1.80
2022-08-17T18:33:50.590Z,1.48
2022-08-17T18:36:35.038Z,1.58
2022-08-17T18:39:19.948Z,1.42
2022-08-17T18:41:55.592Z,1.75
2022-08-17T18:44:38.316Z,1.52
2022-08-17T18:47:21.289Z,1.73
2022-08-17T18:50:20.555Z,1.50
2022-08-17T18:52:49.851Z,1.58
2022-08-17T18:55:23.192Z,1.80
2022-08-17T18:57:56.584Z,1.50
2022-08-17T19:00:31.921Z,1.42
2022-08-17T19:03:25.811Z,1.60
2022-08-17T19:05:58.498Z,1.45
2022-08-17T19:08:30.546Z,1.85
2022-08-17T19:11:24.932Z,2.30
2022-08-17T19:13:56.807Z,1.50
2022-08-17T19:16:35.564Z,1.40
2022-08-17T19:19:20.880Z,1.30
2022-08-17T19:21:55.933Z,1.65
2022-08-17T19:24:27.850Z,1.50
2022-08-17T19:27:19.065Z,1.30
2022-08-17T19:30:08.405Z,1.40
2022-08-17T19:32:38.003Z,1.90
2022-08-17T19:35:13.708Z,1.65
2022-08-17T19:38:12.750Z,1.60
2022-08-17T19:41:12.463Z,1.70
2022-08-17T19:44:00.136Z,1.38
2022-08-17T19:46:50.025Z,1.30
2022-08-17T19:49:33.161Z,1.15
2022-08-17T19:52:29.246Z,1.95
2022-08-17T19:55:05.972Z,2.03
2022-08-17T19:57:54.134Z,1.80
2022-08-17T20:00:23.388Z,1.67
2022-08-17T20:03:07.685Z,1.70
2022-08-17T20:06:08.518Z,2.28
2022-08-17T20:08:35.590Z,2.08
2022-08-17T20:11:12.691Z,1.63
2022-08-17T20:13:46.108Z,1.60
2022-08-17T20:16:15.303Z,1.80
2022-08-17T20:19:01.832Z,2.05
2022-08-17T20:21:54.928Z,2.00
2022-08-17T20:24:50.050Z,1.83
2022-08-17T20:27:22.219Z,2.17
2022-08-17T20:30:14.182Z,1.70
2022-08-17T20:33:01.397Z,1.50
2022-08-17T20:35:39.489Z,1.60
2022-08-17T20:38:34.495Z,1.63
2022-08-17T20:41:18.968Z,1.90
2022-08-17T20:43:59.168Z,1.52
2022-08-17T20:46:53.029Z,1.85
2022-08-17T20:49:36.818Z,1.63
2022-08-17T20:52:11.215Z,1.60
2022-08-17T20:54:56.761Z,1.60
2022-08-17T20:57:37.929Z,1.50
2022-08-17T21:00:30.173Z,2.05
2022-08-17T21:03:49.139Z,1.83
2022-08-17T21:06:23.420Z,2.40
2022-08-17T21:09:16.547Z,1.88
2022-08-17T21:12:05.572Z,2.92
2022-08-17T21:15:04.221Z,2.00
2022-08-17T21:17:53.516Z,1.60
2022-08-17T21:20:40.580Z,1.70
2022-08-17T21:23:20.423Z,1.63
2022-08-17T21:26:18.344Z,2.50
2022-08-17T21:29:00.578Z,1.75
2022-08-17T21:31:40.965Z,1.63
2022-08-17T21:34:27.495Z,1.60
2022-08-17T21:37:16.885Z,1.50
2022-08-17T21:39:52.218Z,1.45
2022-08-17T21:42:34.848Z,1.60
2022-08-17T21:45:22.474Z,1.80
2022-08-17T21:48:08.054Z,1.67
2022-08-17T21:50:38.550Z,1.30
2022-08-17T21:53:09.887Z,2.20
2022-08-17T21:55:39.385Z,1.40
2022-08-17T21:58:29.844Z,1.38
2022-08-17T22:01:21.854Z,1.65
2022-08-17T22:04:04.956Z,1.70
2022-08-17T22:06:41.248Z,1.60
2022-08-17T22:09:13.537Z,1.45
2022-08-17T22:12:12.271Z,1.55
2022-08-17T22:14:52.576Z,1.42
2022-08-17T22:17:37.304Z,1.50
2022-08-17T22:20:17.736Z,1.90
2022-08-17T22:23:04.930Z,1.58
2022-08-17T22:25:37.921Z,1.50
2022-08-17T22:28:10.017Z,1.50
2022-08-17T22:30:44.668Z,1.48
2022-08-17T22:33:38.445Z,1.40
2022-08-17T22:36:34.661Z,1.42
2022-08-17T22:39:09.838Z,1.90
2022-08-17T22:42:01.453Z,1.90
2022-08-17T22:44:38.633Z,1.33
2022-08-17T22:47:19.932Z,1.50
2022-08-17T22:49:53.124Z,1.65
2022-08-17T22:53:02.255Z,1.40
2022-08-17T22:55:52.866Z,1.83
2022-08-17T22:58:43.900Z,1.77
2022-08-17T23:01:32.537Z,1.25
2022-08-17T23:04:25.795Z,1.40
2022-08-17T23:06:55.331Z,1.33
2022-08-17T23:09:24.679Z,1.30
2022-08-17T23:11:59.636Z,1.50
2022-08-17T23:17:02.869Z,1.38
2022-08-17T23:19:32.619Z,1.63
2022-08-17T23:22:05.159Z,1.27
2022-08-17T23:24:41.834Z,1.58
2022-08-17T23:27:11.341Z,1.60
2022-08-17T23:29:42.856Z,1.40
2022-08-17T23:32:15.894Z,1.30
2022-08-17T23:34:47.900Z,1.40
2022-08-17T23:37:19.032Z,1.55
2022-08-17T23:39:48.418Z,1.40
2022-08-17T23:42:22.735Z,1.77
2022-08-17T23:44:51.912Z,1.30
2022-08-17T23:47:22.331Z,1.20
2022-08-17T23:49:54.120Z,1.48
2022-08-17T23:52:25.315Z,1.55
2022-08-17T23:54:58.407Z,1.42
2022-08-17T23:57:33.490Z,1.40
